sensor_id;sensor_type;location;lat;lon;timestamp;P1;durP1;ratioP1;P2;durP2;ratioP2
77571;SDS011;67214;47.454;18.966;2023-03-23T00:02:06;20.72;;;12.28;;
77571;SDS011;67214;47.454;18.966;2023-03-23T00:04:33;22.42;;;11.93;;
77571;SDS011;67214;47.454;18.966;2023-03-23T00:07:01;20.90;;;12.30;;
77571;SDS011;67214;47.454;18.966;2023-03-23T00:09:29;27.30;;;12.05;;
77571;SDS011;67214;47.454;18.966;2023-03-23T00:11:58;26.52;;;12.60;;
77571;SDS011;67214;47.454;18.966;2023-03-23T00:14:27;22.70;;;11.40;;
77571;SDS011;67214;47.454;18.966;2023-03-23T00:16:54;20.92;;;11.25;;
77571;SDS011;67214;47.454;18.966;2023-03-23T00:19:22;26.48;;;12.88;;
77571;SDS011;67214;47.454;18.966;2023-03-23T00:21:49;21.60;;;12.80;;
77571;SDS011;67214;47.454;18.966;2023-03-23T00:24:18;21.77;;;11.43;;
77571;SDS011;67214;47.454;18.966;2023-03-23T00:26:46;21.55;;;11.93;;
77571;SDS011;67214;47.454;18.966;2023-03-23T00:29:18;18.65;;;11.25;;
77571;SDS011;67214;47.454;18.966;2023-03-23T00:31:47;20.62;;;10.32;;
77571;SDS011;67214;47.454;18.966;2023-03-23T00:34:21;24.95;;;11.70;;
77571;SDS011;67214;47.454;18.966;2023-03-23T00:36:50;26.23;;;11.43;;
77571;SDS011;67214;47.454;18.966;2023-03-23T00:39:20;22.02;;;10.53;;
77571;SDS011;67214;47.454;18.966;2023-03-23T00:41:50;21.05;;;11.97;;
77571;SDS011;67214;47.454;18.966;2023-03-23T00:44:18;24.75;;;11.45;;
77571;SDS011;67214;47.454;18.966;2023-03-23T00:46:48;21.02;;;11.73;;
77571;SDS011;67214;47.454;18.966;2023-03-23T00:49:17;20.77;;;11.18;;
77571;SDS011;67214;47.454;18.966;2023-03-23T00:51:47;19.77;;;12.28;;
77571;SDS011;67214;47.454;18.966;2023-03-23T00:54:15;19.48;;;12.73;;
77571;SDS011;67214;47.454;18.966;2023-03-23T00:56:42;18.35;;;11.22;;
77571;SDS011;67214;47.454;18.966;2023-03-23T00:59:10;21.95;;;11.88;;
77571;SDS011;67214;47.454;18.966;2023-03-23T01:01:37;19.37;;;10.82;;
77571;SDS011;67214;47.454;18.966;2023-03-23T01:04:05;21.60;;;10.68;;
77571;SDS011;67214;47.454;18.966;2023-03-23T01:06:33;19.25;;;10.32;;
77571;SDS011;67214;47.454;18.966;2023-03-23T01:09:04;18.27;;;10.60;;
77571;SDS011;67214;47.454;18.966;2023-03-23T01:11:33;17.32;;;10.38;;
77571;SDS011;67214;47.454;18.966;2023-03-23T01:14:01;19.05;;;10.50;;
77571;SDS011;67214;47.454;18.966;2023-03-23T01:16:29;20.37;;;11.25;;
77571;SDS011;67214;47.454;18.966;2023-03-23T01:18:56;17.00;;;10.55;;
77571;SDS011;67214;47.454;18.966;2023-03-23T01:21:24;20.80;;;10.20;;
77571;SDS011;67214;47.454;18.966;2023-03-23T01:23:51;17.35;;;9.95;;
77571;SDS011;67214;47.454;18.966;2023-03-23T01:26:21;22.70;;;11.78;;
77571;SDS011;67214;47.454;18.966;2023-03-23T01:28:50;20.80;;;11.50;;
77571;SDS011;67214;47.454;18.966;2023-03-23T01:31:19;17.40;;;10.30;;
77571;SDS011;67214;47.454;18.966;2023-03-23T01:33:48;15.95;;;9.50;;
77571;SDS011;67214;47.454;18.966;2023-03-23T01:36:19;13.18;;;9.00;;
77571;SDS011;67214;47.454;18.966;2023-03-23T01:38:49;17.35;;;9.83;;
77571;SDS011;67214;47.454;18.966;2023-03-23T01:41:17;18.42;;;9.58;;
77571;SDS011;67214;47.454;18.966;2023-03-23T01:43:56;16.05;;;9.53;;
77571;SDS011;67214;47.454;18.966;2023-03-23T01:46:27;15.40;;;9.23;;
77571;SDS011;67214;47.454;18.966;2023-03-23T01:48:58;17.12;;;9.93;;
77571;SDS011;67214;47.454;18.966;2023-03-23T01:51:29;15.78;;;10.03;;
77571;SDS011;67214;47.454;18.966;2023-03-23T01:53:57;18.00;;;9.95;;
77571;SDS011;67214;47.454;18.966;2023-03-23T01:56:29;14.98;;;9.28;;
77571;SDS011;67214;47.454;18.966;2023-03-23T01:58:58;16.45;;;9.40;;
77571;SDS011;67214;47.454;18.966;2023-03-23T02:01:26;15.98;;;9.45;;
77571;SDS011;67214;47.454;18.966;2023-03-23T02:03:54;15.48;;;8.85;;
77571;SDS011;67214;47.454;18.966;2023-03-23T02:06:23;17.35;;;9.78;;
77571;SDS011;67214;47.454;18.966;2023-03-23T02:08:51;19.98;;;10.18;;
77571;SDS011;67214;47.454;18.966;2023-03-23T02:11:20;15.15;;;9.50;;
77571;SDS011;67214;47.454;18.966;2023-03-23T02:13:48;19.60;;;10.03;;
77571;SDS011;67214;47.454;18.966;2023-03-23T02:19:21;16.57;;;9.33;;
77571;SDS011;67214;47.454;18.966;2023-03-23T02:22:14;17.07;;;9.15;;
77571;SDS011;67214;47.454;18.966;2023-03-23T02:24:58;16.75;;;9.43;;
77571;SDS011;67214;47.454;18.966;2023-03-23T02:33:33;16.10;;;8.90;;
77571;SDS011;67214;47.454;18.966;2023-03-23T02:38:58;16.50;;;9.00;;
77571;SDS011;67214;47.454;18.966;2023-03-23T02:41:31;14.35;;;8.03;;
77571;SDS011;67214;47.454;18.966;2023-03-23T02:44:02;16.32;;;8.73;;
77571;SDS011;67214;47.454;18.966;2023-03-23T02:46:31;18.12;;;8.55;;
77571;SDS011;67214;47.454;18.966;2023-03-23T02:49:01;14.35;;;9.90;;
77571;SDS011;67214;47.454;18.966;2023-03-23T02:51:31;17.62;;;9.30;;
77571;SDS011;67214;47.454;18.966;2023-03-23T02:54:01;15.83;;;9.15;;
77571;SDS011;67214;47.454;18.966;2023-03-23T02:56:30;17.12;;;8.70;;
77571;SDS011;67214;47.454;18.966;2023-03-23T02:58:59;18.85;;;9.23;;
77571;SDS011;67214;47.454;18.966;2023-03-23T03:04:05;15.38;;;8.60;;
77571;SDS011;67214;47.454;18.966;2023-03-23T03:06:50;17.85;;;10.13;;
77571;SDS011;67214;47.454;18.966;2023-03-23T03:10:03;15.63;;;10.10;;
77571;SDS011;67214;47.454;18.966;2023-03-23T03:12:17;16.45;;;9.40;;
77571;SDS011;67214;47.454;18.966;2023-03-23T03:14:42;19.35;;;9.30;;
77571;SDS011;67214;47.454;18.966;2023-03-23T03:17:19;14.30;;;8.98;;
77571;SDS011;67214;47.454;18.966;2023-03-23T03:19:57;14.45;;;9.28;;
77571;SDS011;67214;47.454;18.966;2023-03-23T03:22:28;16.40;;;8.68;;
77571;SDS011;67214;47.454;18.966;2023-03-23T03:24:57;14.03;;;9.00;;
77571;SDS011;67214;47.454;18.966;2023-03-23T03:27:26;23.52;;;9.33;;
77571;SDS011;67214;47.454;18.966;2023-03-23T03:29:56;15.60;;;8.88;;
77571;SDS011;67214;47.454;18.966;2023-03-23T03:32:41;15.03;;;9.23;;
77571;SDS011;67214;47.454;18.966;2023-03-23T03:35:09;18.10;;;9.53;;
77571;SDS011;67214;47.454;18.966;2023-03-23T03:37:37;23.35;;;9.30;;
77571;SDS011;67214;47.454;18.966;2023-03-23T03:40:06;17.37;;;8.55;;
77571;SDS011;67214;47.454;18.966;2023-03-23T03:42:40;16.02;;;9.43;;
77571;SDS011;67214;47.454;18.966;2023-03-23T03:45:10;18.90;;;8.95;;
77571;SDS011;67214;47.454;18.966;2023-03-23T03:47:39;16.75;;;9.33;;
77571;SDS011;67214;47.454;18.966;2023-03-23T03:50:06;14.03;;;9.43;;
77571;SDS011;67214;47.454;18.966;2023-03-23T03:52:35;14.07;;;8.60;;
77571;SDS011;67214;47.454;18.966;2023-03-23T03:55:04;16.25;;;9.20;;
77571;SDS011;67214;47.454;18.966;2023-03-23T03:57:33;13.65;;;8.78;;
77571;SDS011;67214;47.454;18.966;2023-03-23T04:00:00;13.70;;;8.35;;
77571;SDS011;67214;47.454;18.966;2023-03-23T04:02:30;15.43;;;9.90;;
77571;SDS011;67214;47.454;18.966;2023-03-23T04:04:58;18.82;;;9.05;;
77571;SDS011;67214;47.454;18.966;2023-03-23T04:07:27;19.73;;;8.40;;
77571;SDS011;67214;47.454;18.966;2023-03-23T04:09:55;17.62;;;9.10;;
77571;SDS011;67214;47.454;18.966;2023-03-23T04:12:22;16.27;;;9.18;;
77571;SDS011;67214;47.454;18.966;2023-03-23T04:14:49;16.73;;;9.38;;
77571;SDS011;67214;47.454;18.966;2023-03-23T04:17:17;21.07;;;9.38;;
77571;SDS011;67214;47.454;18.966;2023-03-23T04:19:45;16.57;;;8.80;;
77571;SDS011;67214;47.454;18.966;2023-03-23T04:22:13;16.12;;;9.05;;
77571;SDS011;67214;47.454;18.966;2023-03-23T04:24:42;15.03;;;8.65;;
77571;SDS011;67214;47.454;18.966;2023-03-23T04:27:10;17.12;;;8.85;;
77571;SDS011;67214;47.454;18.966;2023-03-23T04:29:38;17.92;;;8.70;;
77571;SDS011;67214;47.454;18.966;2023-03-23T04:32:06;21.85;;;9.75;;
77571;SDS011;67214;47.454;18.966;2023-03-23T04:34:34;19.30;;;8.98;;
77571;SDS011;67214;47.454;18.966;2023-03-23T04:37:01;21.25;;;9.78;;
77571;SDS011;67214;47.454;18.966;2023-03-23T04:39:29;18.82;;;9.68;;
77571;SDS011;67214;47.454;18.966;2023-03-23T04:41:58;20.85;;;9.55;;
77571;SDS011;67214;47.454;18.966;2023-03-23T04:44:27;21.45;;;11.03;;
77571;SDS011;67214;47.454;18.966;2023-03-23T04:46:56;21.17;;;11.63;;
77571;SDS011;67214;47.454;18.966;2023-03-23T04:49:25;17.27;;;10.68;;
77571;SDS011;67214;47.454;18.966;2023-03-23T04:51:55;19.40;;;10.58;;
77571;SDS011;67214;47.454;18.966;2023-03-23T04:54:23;18.35;;;10.28;;
77571;SDS011;67214;47.454;18.966;2023-03-23T04:56:50;23.32;;;9.58;;
77571;SDS011;67214;47.454;18.966;2023-03-23T04:59:17;20.92;;;11.40;;
77571;SDS011;67214;47.454;18.966;2023-03-23T05:01:46;20.00;;;10.78;;
77571;SDS011;67214;47.454;18.966;2023-03-23T05:04:14;23.42;;;11.15;;
77571;SDS011;67214;47.454;18.966;2023-03-23T05:06:42;24.65;;;10.75;;
77571;SDS011;67214;47.454;18.966;2023-03-23T05:09:10;16.55;;;10.13;;
77571;SDS011;67214;47.454;18.966;2023-03-23T05:11:38;23.02;;;11.33;;
77571;SDS011;67214;47.454;18.966;2023-03-23T05:14:06;20.45;;;10.65;;
77571;SDS011;67214;47.454;18.966;2023-03-23T05:16:33;20.75;;;11.75;;
77571;SDS011;67214;47.454;18.966;2023-03-23T05:19:03;23.60;;;12.07;;
77571;SDS011;67214;47.454;18.966;2023-03-23T05:21:31;25.57;;;11.25;;
77571;SDS011;67214;47.454;18.966;2023-03-23T05:23:59;23.60;;;12.70;;
77571;SDS011;67214;47.454;18.966;2023-03-23T05:26:27;22.50;;;11.12;;
77571;SDS011;67214;47.454;18.966;2023-03-23T05:28:55;17.92;;;10.35;;
77571;SDS011;67214;47.454;18.966;2023-03-23T05:31:22;20.75;;;11.30;;
77571;SDS011;67214;47.454;18.966;2023-03-23T05:33:50;17.42;;;9.75;;
77571;SDS011;67214;47.454;18.966;2023-03-23T05:36:19;21.75;;;11.30;;
77571;SDS011;67214;47.454;18.966;2023-03-23T05:38:48;20.75;;;9.43;;
77571;SDS011;67214;47.454;18.966;2023-03-23T05:41:17;18.45;;;9.58;;
77571;SDS011;67214;47.454;18.966;2023-03-23T05:43:44;20.45;;;9.50;;
77571;SDS011;67214;47.454;18.966;2023-03-23T05:46:13;21.12;;;10.32;;
77571;SDS011;67214;47.454;18.966;2023-03-23T05:48:40;19.50;;;10.03;;
77571;SDS011;67214;47.454;18.966;2023-03-23T05:51:07;18.98;;;10.05;;
77571;SDS011;67214;47.454;18.966;2023-03-23T05:53:35;19.55;;;9.98;;
77571;SDS011;67214;47.454;18.966;2023-03-23T05:56:03;19.10;;;9.98;;
77571;SDS011;67214;47.454;18.966;2023-03-23T05:58:32;20.27;;;10.05;;
77571;SDS011;67214;47.454;18.966;2023-03-23T06:01:00;17.50;;;10.00;;
77571;SDS011;67214;47.454;18.966;2023-03-23T06:03:27;21.15;;;10.98;;
77571;SDS011;67214;47.454;18.966;2023-03-23T06:05:54;20.75;;;11.35;;
77571;SDS011;67214;47.454;18.966;2023-03-23T06:08:23;17.25;;;10.80;;
77571;SDS011;67214;47.454;18.966;2023-03-23T06:10:50;22.32;;;11.75;;
77571;SDS011;67214;47.454;18.966;2023-03-23T06:13:18;22.10;;;12.43;;
77571;SDS011;67214;47.454;18.966;2023-03-23T06:15:45;18.65;;;12.63;;
77571;SDS011;67214;47.454;18.966;2023-03-23T06:18:14;28.20;;;13.03;;
77571;SDS011;67214;47.454;18.966;2023-03-23T06:20:41;28.10;;;14.45;;
77571;SDS011;67214;47.454;18.966;2023-03-23T06:23:09;20.72;;;13.80;;
77571;SDS011;67214;47.454;18.966;2023-03-23T06:25:37;22.82;;;13.88;;
77571;SDS011;67214;47.454;18.966;2023-03-23T06:28:06;21.40;;;13.30;;
77571;SDS011;67214;47.454;18.966;2023-03-23T06:30:34;26.17;;;13.95;;
77571;SDS011;67214;47.454;18.966;2023-03-23T06:33:03;23.95;;;13.45;;
77571;SDS011;67214;47.454;18.966;2023-03-23T06:35:31;18.80;;;12.73;;
77571;SDS011;67214;47.454;18.966;2023-03-23T06:37:58;18.17;;;12.45;;
77571;SDS011;67214;47.454;18.966;2023-03-23T06:40:27;17.12;;;11.95;;
77571;SDS011;67214;47.454;18.966;2023-03-23T06:42:58;21.55;;;12.65;;
77571;SDS011;67214;47.454;18.966;2023-03-23T06:45:25;20.52;;;12.58;;
77571;SDS011;67214;47.454;18.966;2023-03-23T06:47:53;23.40;;;13.53;;
77571;SDS011;67214;47.454;18.966;2023-03-23T06:50:20;18.57;;;12.63;;
77571;SDS011;67214;47.454;18.966;2023-03-23T06:52:48;15.95;;;11.75;;
77571;SDS011;67214;47.454;18.966;2023-03-23T06:55:17;19.35;;;12.90;;
77571;SDS011;67214;47.454;18.966;2023-03-23T06:57:45;19.17;;;11.70;;
77571;SDS011;67214;47.454;18.966;2023-03-23T07:00:13;18.12;;;12.15;;
77571;SDS011;67214;47.454;18.966;2023-03-23T07:02:41;17.75;;;11.57;;
77571;SDS011;67214;47.454;18.966;2023-03-23T07:05:10;17.65;;;11.15;;
77571;SDS011;67214;47.454;18.966;2023-03-23T07:07:40;18.65;;;12.93;;
77571;SDS011;67214;47.454;18.966;2023-03-23T07:10:08;20.82;;;12.10;;
77571;SDS011;67214;47.454;18.966;2023-03-23T07:12:36;19.82;;;12.63;;
77571;SDS011;67214;47.454;18.966;2023-03-23T07:15:06;17.82;;;12.00;;
77571;SDS011;67214;47.454;18.966;2023-03-23T07:17:36;18.07;;;12.18;;
77571;SDS011;67214;47.454;18.966;2023-03-23T07:20:05;17.90;;;11.38;;
77571;SDS011;67214;47.454;18.966;2023-03-23T07:22:34;19.73;;;12.68;;
77571;SDS011;67214;47.454;18.966;2023-03-23T07:25:02;17.02;;;12.35;;
77571;SDS011;67214;47.454;18.966;2023-03-23T07:27:30;17.98;;;12.25;;
77571;SDS011;67214;47.454;18.966;2023-03-23T07:29:58;21.12;;;11.85;;
77571;SDS011;67214;47.454;18.966;2023-03-23T07:32:25;19.25;;;13.40;;
77571;SDS011;67214;47.454;18.966;2023-03-23T07:34:53;18.95;;;12.33;;
77571;SDS011;67214;47.454;18.966;2023-03-23T07:37:21;16.75;;;11.95;;
77571;SDS011;67214;47.454;18.966;2023-03-23T07:39:49;19.30;;;11.45;;
77571;SDS011;67214;47.454;18.966;2023-03-23T07:42:16;17.48;;;11.78;;
77571;SDS011;67214;47.454;18.966;2023-03-23T07:44:44;17.65;;;12.10;;
77571;SDS011;67214;47.454;18.966;2023-03-23T07:47:12;19.98;;;12.20;;
77571;SDS011;67214;47.454;18.966;2023-03-23T07:49:39;19.00;;;13.15;;
77571;SDS011;67214;47.454;18.966;2023-03-23T07:52:06;22.52;;;12.00;;
77571;SDS011;67214;47.454;18.966;2023-03-23T07:54:34;16.40;;;11.85;;
77571;SDS011;67214;47.454;18.966;2023-03-23T07:57:01;16.48;;;11.80;;
77571;SDS011;67214;47.454;18.966;2023-03-23T07:59:29;20.15;;;12.33;;
77571;SDS011;67214;47.454;18.966;2023-03-23T08:01:57;18.62;;;12.60;;
77571;SDS011;67214;47.454;18.966;2023-03-23T08:04:24;18.48;;;12.85;;
77571;SDS011;67214;47.454;18.966;2023-03-23T08:06:52;18.70;;;12.35;;
77571;SDS011;67214;47.454;18.966;2023-03-23T08:09:21;18.55;;;11.83;;
77571;SDS011;67214;47.454;18.966;2023-03-23T08:11:49;16.10;;;9.85;;
77571;SDS011;67214;47.454;18.966;2023-03-23T08:14:17;17.20;;;11.18;;
77571;SDS011;67214;47.454;18.966;2023-03-23T08:16:45;18.32;;;10.70;;
77571;SDS011;67214;47.454;18.966;2023-03-23T08:19:13;14.78;;;10.63;;
77571;SDS011;67214;47.454;18.966;2023-03-23T08:21:41;22.98;;;10.95;;
77571;SDS011;67214;47.454;18.966;2023-03-23T08:24:08;15.83;;;11.48;;
77571;SDS011;67214;47.454;18.966;2023-03-23T08:26:36;14.38;;;11.05;;
77571;SDS011;67214;47.454;18.966;2023-03-23T08:29:04;13.55;;;9.45;;
77571;SDS011;67214;47.454;18.966;2023-03-23T08:31:31;12.23;;;8.80;;
77571;SDS011;67214;47.454;18.966;2023-03-23T08:34:01;15.72;;;9.70;;
77571;SDS011;67214;47.454;18.966;2023-03-23T08:36:31;17.12;;;11.08;;
77571;SDS011;67214;47.454;18.966;2023-03-23T08:38:59;17.45;;;10.13;;
77571;SDS011;67214;47.454;18.966;2023-03-23T08:41:26;15.18;;;10.50;;
77571;SDS011;67214;47.454;18.966;2023-03-23T08:43:54;13.25;;;10.23;;
77571;SDS011;67214;47.454;18.966;2023-03-23T08:46:22;15.63;;;9.73;;
77571;SDS011;67214;47.454;18.966;2023-03-23T08:48:50;15.80;;;10.55;;
77571;SDS011;67214;47.454;18.966;2023-03-23T08:51:19;14.85;;;10.10;;
77571;SDS011;67214;47.454;18.966;2023-03-23T08:53:47;15.88;;;10.08;;
77571;SDS011;67214;47.454;18.966;2023-03-23T08:56:14;13.38;;;10.53;;
77571;SDS011;67214;47.454;18.966;2023-03-23T08:58:42;16.95;;;12.30;;
77571;SDS011;67214;47.454;18.966;2023-03-23T09:01:09;15.10;;;10.53;;
77571;SDS011;67214;47.454;18.966;2023-03-23T09:03:37;12.75;;;10.45;;
77571;SDS011;67214;47.454;18.966;2023-03-23T09:06:06;16.77;;;12.58;;
77571;SDS011;67214;47.454;18.966;2023-03-23T09:08:36;18.95;;;12.88;;
77571;SDS011;67214;47.454;18.966;2023-03-23T09:11:05;19.32;;;11.65;;
77571;SDS011;67214;47.454;18.966;2023-03-23T09:13:35;15.20;;;11.43;;
77571;SDS011;67214;47.454;18.966;2023-03-23T09:16:04;17.37;;;11.65;;
77571;SDS011;67214;47.454;18.966;2023-03-23T09:18:33;18.50;;;12.78;;
77571;SDS011;67214;47.454;18.966;2023-03-23T09:21:01;18.02;;;13.25;;
77571;SDS011;67214;47.454;18.966;2023-03-23T09:23:30;16.85;;;11.65;;
77571;SDS011;67214;47.454;18.966;2023-03-23T09:25:59;19.42;;;11.35;;
77571;SDS011;67214;47.454;18.966;2023-03-23T09:28:28;18.07;;;12.13;;
77571;SDS011;67214;47.454;18.966;2023-03-23T09:30:57;17.55;;;11.08;;
77571;SDS011;67214;47.454;18.966;2023-03-23T09:33:24;18.32;;;10.15;;
77571;SDS011;67214;47.454;18.966;2023-03-23T09:35:52;16.12;;;9.00;;
77571;SDS011;67214;47.454;18.966;2023-03-23T09:38:20;11.95;;;9.13;;
77571;SDS011;67214;47.454;18.966;2023-03-23T09:40:54;13.83;;;8.93;;
77571;SDS011;67214;47.454;18.966;2023-03-23T09:43:37;15.32;;;9.70;;
77571;SDS011;67214;47.454;18.966;2023-03-23T09:51:31;12.73;;;9.48;;
77571;SDS011;67214;47.454;18.966;2023-03-23T09:54:12;12.70;;;9.38;;
77571;SDS011;67214;47.454;18.966;2023-03-23T09:56:38;10.48;;;8.55;;
77571;SDS011;67214;47.454;18.966;2023-03-23T09:59:15;15.63;;;9.43;;
77571;SDS011;67214;47.454;18.966;2023-03-23T10:01:50;14.13;;;8.73;;
77571;SDS011;67214;47.454;18.966;2023-03-23T10:04:24;12.23;;;8.33;;
77571;SDS011;67214;47.454;18.966;2023-03-23T10:07:11;12.75;;;7.78;;
77571;SDS011;67214;47.454;18.966;2023-03-23T10:09:48;11.10;;;7.70;;
77571;SDS011;67214;47.454;18.966;2023-03-23T10:15:09;10.25;;;7.58;;
77571;SDS011;67214;47.454;18.966;2023-03-23T10:18:22;10.70;;;8.43;;
77571;SDS011;67214;47.454;18.966;2023-03-23T10:20:23;9.18;;;7.42;;
77571;SDS011;67214;47.454;18.966;2023-03-23T10:22:55;10.58;;;7.90;;
77571;SDS011;67214;47.454;18.966;2023-03-23T10:25:24;10.78;;;8.23;;
77571;SDS011;67214;47.454;18.966;2023-03-23T10:28:08;9.08;;;7.60;;
77571;SDS011;67214;47.454;18.966;2023-03-23T10:30:49;7.85;;;6.92;;
77571;SDS011;67214;47.454;18.966;2023-03-23T10:36:03;10.40;;;7.55;;
77571;SDS011;67214;47.454;18.966;2023-03-23T10:38:41;13.75;;;7.62;;
77571;SDS011;67214;47.454;18.966;2023-03-23T10:41:13;9.38;;;7.25;;
77571;SDS011;67214;47.454;18.966;2023-03-23T10:43:42;8.83;;;6.35;;
77571;SDS011;67214;47.454;18.966;2023-03-23T10:49:07;10.32;;;7.08;;
77571;SDS011;67214;47.454;18.966;2023-03-23T10:51:34;8.60;;;6.70;;
77571;SDS011;67214;47.454;18.966;2023-03-23T10:54:04;6.40;;;5.42;;
77571;SDS011;67214;47.454;18.966;2023-03-23T10:56:40;9.33;;;5.65;;
77571;SDS011;67214;47.454;18.966;2023-03-23T10:59:20;6.83;;;5.15;;
77571;SDS011;67214;47.454;18.966;2023-03-23T11:01:51;7.10;;;4.87;;
77571;SDS011;67214;47.454;18.966;2023-03-23T11:04:22;7.45;;;4.85;;
77571;SDS011;67214;47.454;18.966;2023-03-23T11:06:57;6.97;;;4.28;;
77571;SDS011;67214;47.454;18.966;2023-03-23T11:09:20;9.50;;;4.15;;
77571;SDS011;67214;47.454;18.966;2023-03-23T11:11:51;5.45;;;3.80;;
77571;SDS011;67214;47.454;18.966;2023-03-23T11:14:25;7.42;;;4.03;;
77571;SDS011;67214;47.454;18.966;2023-03-23T11:16:59;3.77;;;2.92;;
77571;SDS011;67214;47.454;18.966;2023-03-23T11:19:30;6.55;;;3.60;;
77571;SDS011;67214;47.454;18.966;2023-03-23T11:24:34;3.30;;;2.20;;
77571;SDS011;67214;47.454;18.966;2023-03-23T11:27:04;3.92;;;2.58;;
77571;SDS011;67214;47.454;18.966;2023-03-23T11:29:34;5.35;;;2.70;;
77571;SDS011;67214;47.454;18.966;2023-03-23T11:32:05;6.65;;;2.50;;
77571;SDS011;67214;47.454;18.966;2023-03-23T11:34:36;5.90;;;2.60;;
77571;SDS011;67214;47.454;18.966;2023-03-23T11:37:14;7.55;;;2.95;;
77571;SDS011;67214;47.454;18.966;2023-03-23T11:42:24;5.42;;;2.75;;
77571;SDS011;67214;47.454;18.966;2023-03-23T11:45:05;4.65;;;3.05;;
77571;SDS011;67214;47.454;18.966;2023-03-23T11:47:49;4.15;;;2.50;;
77571;SDS011;67214;47.454;18.966;2023-03-23T11:50:24;5.87;;;3.37;;
77571;SDS011;67214;47.454;18.966;2023-03-23T11:53:00;3.92;;;2.65;;
77571;SDS011;67214;47.454;18.966;2023-03-23T11:58:19;13.10;;;3.05;;
77571;SDS011;67214;47.454;18.966;2023-03-23T12:00:54;6.67;;;2.80;;
77571;SDS011;67214;47.454;18.966;2023-03-23T12:03:23;9.93;;;2.80;;
77571;SDS011;67214;47.454;18.966;2023-03-23T12:06:06;4.70;;;3.05;;
77571;SDS011;67214;47.454;18.966;2023-03-23T12:14:26;4.30;;;2.40;;
77571;SDS011;67214;47.454;18.966;2023-03-23T12:17:01;5.28;;;2.77;;
77571;SDS011;67214;47.454;18.966;2023-03-23T12:19:56;5.17;;;2.98;;
77571;SDS011;67214;47.454;18.966;2023-03-23T12:34:01;3.40;;;2.22;;
77571;SDS011;67214;47.454;18.966;2023-03-23T12:42:19;2.60;;;2.17;;
77571;SDS011;67214;47.454;18.966;2023-03-23T12:44:47;3.75;;;2.52;;
77571;SDS011;67214;47.454;18.966;2023-03-23T12:47:34;3.52;;;2.70;;
77571;SDS011;67214;47.454;18.966;2023-03-23T12:50:13;4.20;;;2.33;;
77571;SDS011;67214;47.454;18.966;2023-03-23T12:52:45;4.97;;;2.60;;
77571;SDS011;67214;47.454;18.966;2023-03-23T12:55:32;3.55;;;2.47;;
77571;SDS011;67214;47.454;18.966;2023-03-23T12:58:09;6.40;;;2.47;;
77571;SDS011;67214;47.454;18.966;2023-03-23T13:03:23;5.58;;;2.55;;
77571;SDS011;67214;47.454;18.966;2023-03-23T13:06:35;3.02;;;2.45;;
77571;SDS011;67214;47.454;18.966;2023-03-23T13:08:29;5.75;;;2.90;;
77571;SDS011;67214;47.454;18.966;2023-03-23T13:11:03;4.22;;;2.50;;
77571;SDS011;67214;47.454;18.966;2023-03-23T13:16:22;4.90;;;2.52;;
77571;SDS011;67214;47.454;18.966;2023-03-23T13:19:01;4.28;;;2.72;;
77571;SDS011;67214;47.454;18.966;2023-03-23T13:24:15;6.83;;;2.83;;
77571;SDS011;67214;47.454;18.966;2023-03-23T13:26:44;4.92;;;2.80;;
77571;SDS011;67214;47.454;18.966;2023-03-23T13:29:13;6.47;;;2.70;;
77571;SDS011;67214;47.454;18.966;2023-03-23T13:31:45;5.05;;;3.08;;
77571;SDS011;67214;47.454;18.966;2023-03-23T13:34:19;4.33;;;2.70;;
77571;SDS011;67214;47.454;18.966;2023-03-23T13:36:55;4.05;;;2.87;;
77571;SDS011;67214;47.454;18.966;2023-03-23T13:39:26;5.67;;;3.27;;
77571;SDS011;67214;47.454;18.966;2023-03-23T13:42:04;5.45;;;2.72;;
77571;SDS011;67214;47.454;18.966;2023-03-23T13:49:55;4.22;;;2.95;;
77571;SDS011;67214;47.454;18.966;2023-03-23T13:57:56;3.43;;;2.40;;
77571;SDS011;67214;47.454;18.966;2023-03-23T14:11:09;5.12;;;2.40;;
77571;SDS011;67214;47.454;18.966;2023-03-23T14:13:48;5.97;;;3.12;;
77571;SDS011;67214;47.454;18.966;2023-03-23T14:16:24;3.80;;;2.42;;
77571;SDS011;67214;47.454;18.966;2023-03-23T14:18:55;4.28;;;2.47;;
77571;SDS011;67214;47.454;18.966;2023-03-23T14:21:32;4.83;;;2.45;;
77571;SDS011;67214;47.454;18.966;2023-03-23T14:24:02;5.55;;;2.60;;
77571;SDS011;67214;47.454;18.966;2023-03-23T14:26:33;4.30;;;2.40;;
77571;SDS011;67214;47.454;18.966;2023-03-23T14:29:01;2.80;;;2.37;;
77571;SDS011;67214;47.454;18.966;2023-03-23T14:31:31;4.00;;;2.72;;
77571;SDS011;67214;47.454;18.966;2023-03-23T14:34:02;4.92;;;3.10;;
77571;SDS011;67214;47.454;18.966;2023-03-23T14:36:31;7.95;;;2.45;;
77571;SDS011;67214;47.454;18.966;2023-03-23T14:39:12;2.85;;;2.37;;
77571;SDS011;67214;47.454;18.966;2023-03-23T14:41:53;8.30;;;3.08;;
77571;SDS011;67214;47.454;18.966;2023-03-23T14:44:30;3.00;;;2.40;;
77571;SDS011;67214;47.454;18.966;2023-03-23T14:47:10;4.60;;;2.45;;
77571;SDS011;67214;47.454;18.966;2023-03-23T14:49:39;7.53;;;2.72;;
77571;SDS011;67214;47.454;18.966;2023-03-23T14:52:12;6.95;;;3.10;;
77571;SDS011;67214;47.454;18.966;2023-03-23T14:54:40;7.28;;;2.70;;
77571;SDS011;67214;47.454;18.966;2023-03-23T14:59:42;5.00;;;2.45;;
77571;SDS011;67214;47.454;18.966;2023-03-23T15:02:23;3.52;;;2.35;;
77571;SDS011;67214;47.454;18.966;2023-03-23T15:05:00;3.27;;;2.10;;
77571;SDS011;67214;47.454;18.966;2023-03-23T15:07:34;11.15;;;2.70;;
77571;SDS011;67214;47.454;18.966;2023-03-23T15:10:06;3.83;;;2.67;;
77571;SDS011;67214;47.454;18.966;2023-03-23T15:12:39;4.10;;;2.65;;
77571;SDS011;67214;47.454;18.966;2023-03-23T15:15:16;5.83;;;2.75;;
77571;SDS011;67214;47.454;18.966;2023-03-23T15:17:44;6.95;;;3.30;;
77571;SDS011;67214;47.454;18.966;2023-03-23T15:22:51;4.55;;;3.72;;
77571;SDS011;67214;47.454;18.966;2023-03-23T15:25:30;5.45;;;3.70;;
77571;SDS011;67214;47.454;18.966;2023-03-23T15:30:35;4.80;;;3.12;;
77571;SDS011;67214;47.454;18.966;2023-03-23T15:33:06;6.47;;;3.22;;
77571;SDS011;67214;47.454;18.966;2023-03-23T15:35:36;4.50;;;3.37;;
77571;SDS011;67214;47.454;18.966;2023-03-23T15:38:14;5.12;;;3.80;;
77571;SDS011;67214;47.454;18.966;2023-03-23T15:40:43;8.88;;;3.85;;
77571;SDS011;67214;47.454;18.966;2023-03-23T15:43:15;8.40;;;4.03;;
77571;SDS011;67214;47.454;18.966;2023-03-23T15:51:21;7.25;;;4.47;;
77571;SDS011;67214;47.454;18.966;2023-03-23T15:53:50;6.97;;;4.55;;
77571;SDS011;67214;47.454;18.966;2023-03-23T15:56:19;7.35;;;4.67;;
77571;SDS011;67214;47.454;18.966;2023-03-23T15:58:47;6.42;;;4.83;;
77571;SDS011;67214;47.454;18.966;2023-03-23T16:01:17;12.82;;;5.00;;
77571;SDS011;67214;47.454;18.966;2023-03-23T16:03:53;11.85;;;5.37;;
77571;SDS011;67214;47.454;18.966;2023-03-23T16:06:29;7.92;;;4.35;;
77571;SDS011;67214;47.454;18.966;2023-03-23T16:08:58;8.58;;;4.80;;
77571;SDS011;67214;47.454;18.966;2023-03-23T16:11:27;9.15;;;5.35;;
77571;SDS011;67214;47.454;18.966;2023-03-23T16:13:56;13.15;;;4.65;;
77571;SDS011;67214;47.454;18.966;2023-03-23T16:16:26;15.60;;;5.50;;
77571;SDS011;67214;47.454;18.966;2023-03-23T16:18:54;7.58;;;3.85;;
77571;SDS011;67214;47.454;18.966;2023-03-23T16:21:22;8.28;;;4.08;;
77571;SDS011;67214;47.454;18.966;2023-03-23T16:23:50;5.75;;;3.87;;